createdAt,value
2022-11-05T00:01:50.534Z,96880.13
2022-11-05T00:04:35.882Z,96881.53
2022-11-05T00:07:32.851Z,96888.34
2022-11-05T00:10:07.593Z,96895.06
2022-11-05T00:12:52.806Z,96886.69
2022-11-05T00:15:38.086Z,96898.41
2022-11-05T00:18:04.837Z,96901.75
2022-11-05T00:20:31.476Z,96902.84
2022-11-05T00:23:20.814Z,96906.41
2022-11-05T00:25:57.089Z,96911.41
2022-11-05T00:28:24.711Z,96919.06
2022-11-05T00:30:52.060Z,96911.53
2022-11-05T00:33:18.878Z,96914.88
2022-11-05T00:35:46.591Z,96910.59
2022-11-05T00:38:13.451Z,96922.88
2022-11-05T00:40:40.238Z,96930.88
2022-11-05T00:43:25.590Z,96924.91
2022-11-05T00:45:52.345Z,96923.75
2022-11-05T00:48:37.689Z,96922.53
2022-11-05T00:51:04.637Z,96921.47
2022-11-05T00:53:31.327Z,96935.44
2022-11-05T00:55:58.210Z,96927.91
2022-11-05T00:58:24.971Z,96926.38
2022-11-05T01:00:58.759Z,96930.31
2022-11-05T01:03:29.820Z,96931.00
2022-11-05T01:05:58.491Z,96937.09
2022-11-05T01:08:27.422Z,96946.53
2022-11-05T01:10:57.514Z,96945.56
2022-11-05T01:13:28.203Z,96951.31
2022-11-05T01:15:55.633Z,96956.78
2022-11-05T01:18:23.765Z,96955.84
2022-11-05T01:20:50.881Z,96955.13
2022-11-05T01:23:17.776Z,96955.84
2022-11-05T01:25:44.773Z,96957.75
2022-11-05T01:28:11.580Z,96965.28
2022-11-05T01:30:38.725Z,96958.84
2022-11-05T01:33:05.429Z,96957.03
2022-11-05T01:35:32.202Z,96968.75
2022-11-05T01:37:58.923Z,96968.97
2022-11-05T01:40:26.197Z,96972.31
2022-11-05T01:42:53.175Z,96969.22
2022-11-05T01:45:25.881Z,96969.91
2022-11-05T01:48:08.237Z,96974.34
2022-11-05T01:50:47.387Z,96984.09
2022-11-05T01:53:14.264Z,96978.50
2022-11-05T01:55:49.894Z,96989.13
2022-11-05T01:58:20.436Z,96994.72
2022-11-05T02:00:47.726Z,96989.38
2022-11-05T02:03:15.482Z,96997.59
2022-11-05T02:05:42.524Z,96991.88
2022-11-05T02:08:16.842Z,96995.22
2022-11-05T02:10:45.109Z,96998.78
2022-11-05T02:13:12.119Z,97011.31
2022-11-05T02:16:03.735Z,97012.25
2022-11-05T02:18:45.515Z,97017.03
2022-11-05T02:21:42.806Z,97021.34
2022-11-05T02:24:18.462Z,97027.41
2022-11-05T02:27:08.439Z,97024.69
2022-11-05T02:29:47.617Z,97026.69
2022-11-05T02:32:28.186Z,97032.16
2022-11-05T02:34:57.796Z,97034.34
2022-11-05T02:37:24.402Z,97042.22
2022-11-05T02:40:09.183Z,97027.53
2022-11-05T02:42:41.180Z,97044.69
2022-11-05T02:45:11.062Z,97045.31
2022-11-05T02:47:45.273Z,97039.94
2022-11-05T02:50:20.971Z,97046.84
2022-11-05T02:53:07.794Z,97051.16
2022-11-05T02:55:49.907Z,97051.97
2022-11-05T02:58:16.646Z,97050.56
2022-11-05T03:01:06.902Z,97055.78
2022-11-05T03:03:47.952Z,97056.63
2022-11-05T03:06:33.042Z,97055.69
2022-11-05T03:09:22.074Z,97063.44
2022-11-05T03:12:26.484Z,97069.50
2022-11-05T03:15:03.185Z,97067.22
2022-11-05T03:17:39.118Z,97066.50
2022-11-05T03:20:21.651Z,97069.38
2022-11-05T03:22:55.445Z,97070.31
2022-11-05T03:25:24.456Z,97071.03
2022-11-05T03:27:56.037Z,97070.53
2022-11-05T03:30:24.800Z,97083.53
2022-11-05T03:32:56.385Z,97082.13
2022-11-05T03:35:27.703Z,97082.84
2022-11-05T03:38:01.643Z,97071.75
2022-11-05T03:40:32.345Z,97082.94
2022-11-05T03:43:00.879Z,97078.91
2022-11-05T03:45:36.198Z,97083.69
2022-11-05T03:48:04.099Z,97089.19
2022-11-05T03:50:41.088Z,97089.63
2022-11-05T03:53:17.666Z,97089.13
2022-11-05T03:55:53.917Z,97086.59
2022-11-05T03:58:22.231Z,97103.50
2022-11-05T04:00:49.598Z,97106.59
2022-11-05T04:03:16.652Z,97109.31
2022-11-05T04:05:43.390Z,97117.44
2022-11-05T04:08:28.558Z,97119.56
2022-11-05T04:11:13.921Z,97117.81
2022-11-05T04:13:40.677Z,97121.16
2022-11-05T04:16:25.944Z,97124.22
2022-11-05T04:18:52.728Z,97138.78
2022-11-05T04:21:38.007Z,97130.09
2022-11-05T04:24:11.185Z,97143.19
2022-11-05T04:26:47.512Z,97141.06
2022-11-05T04:29:32.790Z,97134.72
2022-11-05T04:31:59.778Z,97141.63
2022-11-05T04:34:26.490Z,97141.50
2022-11-05T04:36:53.375Z,97155.22
2022-11-05T04:39:20.913Z,97157.97
2022-11-05T04:41:50.469Z,97156.16
2022-11-05T04:44:17.244Z,97165.09
2022-11-05T04:46:44.099Z,97162.94
2022-11-05T04:49:10.845Z,97164.50
2022-11-05T04:51:37.481Z,97167.69
2022-11-05T04:54:04.254Z,97172.19
2022-11-05T04:56:40.097Z,97171.34
2022-11-05T04:59:09.193Z,97174.78
2022-11-05T05:01:36.047Z,97173.25
2022-11-05T05:04:03.378Z,97177.00
2022-11-05T05:06:30.024Z,97186.44
2022-11-05T05:08:56.877Z,97175.78
2022-11-05T05:11:23.539Z,97182.69
2022-11-05T05:13:50.537Z,97185.91
2022-11-05T05:16:25.669Z,97193.66
2022-11-05T05:18:53.582Z,97195.25
2022-11-05T05:21:40.342Z,97187.28
2022-11-05T05:24:08.900Z,97185.41
2022-11-05T05:26:43.458Z,97197.06
2022-11-05T05:29:10.836Z,97199.38
2022-11-05T05:31:37.853Z,97199.50
2022-11-05T05:34:06.027Z,97198.34
2022-11-05T05:36:32.819Z,97200.06
2022-11-05T05:38:59.609Z,97209.72
2022-11-05T05:41:26.397Z,97203.63
2022-11-05T05:43:53.108Z,97209.13
2022-11-05T05:46:19.856Z,97212.59
2022-11-05T05:48:51.768Z,97211.75
2022-11-05T05:51:19.000Z,97211.75
2022-11-05T05:53:45.892Z,97218.66
2022-11-05T05:56:15.140Z,97219.97
2022-11-05T05:58:42.370Z,97219.84
2022-11-05T06:01:18.234Z,97216.91
2022-11-05T06:03:45.651Z,97228.31
2022-11-05T06:06:13.462Z,97226.88
2022-11-05T06:08:41.025Z,97226.16
2022-11-05T06:11:08.398Z,97229.78
2022-11-05T06:13:36.250Z,97232.53
2022-11-05T06:16:04.685Z,97233.25
2022-11-05T06:18:31.781Z,97235.56
2022-11-05T06:21:06.417Z,97235.25
2022-11-05T06:23:33.922Z,97234.41
2022-11-05T06:26:08.729Z,97242.06
2022-11-05T06:28:35.808Z,97244.34
2022-11-05T06:31:03.349Z,97252.00
2022-11-05T06:33:30.158Z,97263.81
2022-11-05T06:36:00.949Z,97253.56
2022-11-05T06:38:29.287Z,97263.22
2022-11-05T06:40:58.460Z,97263.81
2022-11-05T06:43:25.469Z,97265.25
2022-11-05T06:45:52.166Z,97278.13
2022-11-05T06:48:18.930Z,97275.44
2022-11-05T06:50:46.082Z,97276.38
2022-11-05T06:53:13.720Z,97281.47
2022-11-05T06:55:40.806Z,97282.34
2022-11-05T06:58:07.552Z,97291.88
2022-11-05T07:00:42.454Z,97298.50
2022-11-05T07:03:11.917Z,97296.78
2022-11-05T07:05:41.547Z,97298.09
2022-11-05T07:08:08.296Z,97304.28
2022-11-05T07:10:35.049Z,97297.81
2022-11-05T07:13:06.731Z,97311.75
2022-11-05T07:15:34.986Z,97316.81
2022-11-05T07:18:02.406Z,97321.72
2022-11-05T07:20:33.944Z,97323.13
2022-11-05T07:23:10.457Z,97327.75
2022-11-05T07:25:45.796Z,97335.38
2022-11-05T07:28:14.706Z,97339.88
2022-11-05T07:30:51.056Z,97342.72
2022-11-05T07:33:18.963Z,97344.63
2022-11-05T07:35:45.806Z,97353.97
2022-11-05T07:38:12.671Z,97357.72
2022-11-05T07:40:39.602Z,97358.56
2022-11-05T07:43:06.709Z,97366.34
2022-11-05T07:45:33.489Z,97370.66
2022-11-05T07:48:02.472Z,97372.91
2022-11-05T07:50:31.463Z,97375.97
2022-11-05T07:53:02.020Z,97375.53
2022-11-05T07:55:28.824Z,97381.59
2022-11-05T07:57:55.481Z,97382.53
2022-11-05T08:00:23.764Z,97384.25
2022-11-05T08:03:09.722Z,97379.88
2022-11-05T08:05:38.612Z,97378.56
2022-11-05T08:08:07.142Z,97383.50
2022-11-05T08:10:34.378Z,97381.94
2022-11-05T08:13:09.226Z,97387.63
2022-11-05T08:15:39.141Z,97392.69
2022-11-05T08:18:08.367Z,97384.34
2022-11-05T08:20:35.650Z,97390.69
2022-11-05T08:23:02.349Z,97393.44
2022-11-05T08:25:31.645Z,97394.31
2022-11-05T08:28:03.819Z,97393.31
2022-11-05T08:30:30.811Z,97391.56
2022-11-05T08:33:01.802Z,97392.56
2022-11-05T08:35:29.370Z,97396.91
2022-11-05T08:38:02.815Z,97401.22
2022-11-05T08:40:34.750Z,97399.22
2022-11-05T08:43:03.376Z,97398.63
2022-11-05T08:45:30.383Z,97403.81
2022-11-05T08:48:01.676Z,97411.31
2022-11-05T08:50:28.958Z,97411.72
2022-11-05T08:52:55.712Z,97416.84
2022-11-05T08:55:22.544Z,97413.28
2022-11-05T08:57:55.379Z,97418.31
2022-11-05T09:00:22.140Z,97416.31
2022-11-05T09:02:48.796Z,97422.25
2022-11-05T09:05:15.560Z,97429.72
2022-11-05T09:07:42.648Z,97431.63
2022-11-05T09:10:09.829Z,97431.34
2022-11-05T09:12:36.472Z,97426.47
2022-11-05T09:15:03.526Z,97434.22
2022-11-05T09:17:30.246Z,97435.66
2022-11-05T09:19:56.999Z,97433.78
2022-11-05T09:22:23.693Z,97434.50
2022-11-05T09:24:50.448Z,97438.94
2022-11-05T09:27:17.894Z,97436.63
2022-11-05T09:29:44.640Z,97434.88
2022-11-05T09:32:12.143Z,97439.06
2022-11-05T09:34:38.943Z,97439.03
2022-11-05T09:37:05.632Z,97437.47
2022-11-05T09:39:32.353Z,97448.69
2022-11-05T09:42:08.550Z,97446.25
2022-11-05T09:44:55.144Z,97446.44
2022-11-05T09:47:33.597Z,97452.63
2022-11-05T09:50:04.360Z,97448.75
2022-11-05T09:52:33.375Z,97445.47
2022-11-05T09:55:00.174Z,97447.34
2022-11-05T09:57:35.046Z,97454.97
2022-11-05T10:00:05.713Z,97456.28
2022-11-05T10:02:55.647Z,97455.13
2022-11-05T10:05:24.231Z,97459.16
2022-11-05T10:07:55.513Z,97471.50
2022-11-05T10:10:37.857Z,97469.97
2022-11-05T10:13:32.265Z,97462.38
2022-11-05T10:16:04.086Z,97477.06
2022-11-05T10:18:34.573Z,97476.09
2022-11-05T10:21:01.303Z,97474.53
2022-11-05T10:23:28.834Z,97470.81
2022-11-05T10:26:09.141Z,97477.34
2022-11-05T10:28:36.349Z,97477.81
2022-11-05T10:31:07.404Z,97481.44
2022-11-05T10:33:57.841Z,97469.81
2022-11-05T10:36:29.085Z,97475.34
2022-11-05T10:39:15.030Z,97469.59
2022-11-05T10:42:07.277Z,97473.38
2022-11-05T10:44:48.583Z,97476.41
2022-11-05T10:47:45.855Z,97482.97
2022-11-05T10:50:17.558Z,97484.78
2022-11-05T10:52:52.955Z,97496.28
2022-11-05T10:55:32.614Z,97488.75
2022-11-05T10:58:17.680Z,97487.34
2022-11-05T11:01:00.226Z,97486.19
2022-11-05T11:03:39.453Z,97480.75
2022-11-05T11:06:29.340Z,97487.53
2022-11-05T11:08:57.660Z,97489.28
2022-11-05T11:11:27.814Z,97486.66
2022-11-05T11:13:57.281Z,97495.59
2022-11-05T11:16:26.558Z,97493.56
2022-11-05T11:19:00.617Z,97493.66
2022-11-05T11:21:29.165Z,97500.63
2022-11-05T11:24:00.530Z,97498.44
2022-11-05T11:26:30.229Z,97500.53
2022-11-05T11:29:00.125Z,97501.28
2022-11-05T11:31:30.024Z,97498.34
2022-11-05T11:34:13.177Z,97495.81
2022-11-05T11:36:45.476Z,97494.69
2022-11-05T11:39:20.054Z,97493.47
2022-11-05T11:41:51.128Z,97485.00
2022-11-05T11:44:30.374Z,97490.97
2022-11-05T11:47:01.972Z,97493.03
2022-11-05T11:49:51.316Z,97494.44
2022-11-05T11:52:26.868Z,97484.78
2022-11-05T11:54:54.087Z,97480.06
2022-11-05T11:57:23.807Z,97480.94
2022-11-05T12:00:08.271Z,97481.84
2022-11-05T12:03:01.890Z,97481.19
2022-11-05T12:05:35.035Z,97475.66
2022-11-05T12:08:34.773Z,97479.28
2022-11-05T12:11:13.631Z,97482.88
2022-11-05T12:13:43.164Z,97480.53
2022-11-05T12:16:33.348Z,97488.59
2022-11-05T12:19:16.962Z,97485.69
2022-11-05T12:21:54.667Z,97488.91
2022-11-05T12:24:51.933Z,97478.53
2022-11-05T12:27:38.141Z,97493.53
2022-11-05T12:30:16.744Z,97490.59
2022-11-05T12:33:08.502Z,97482.56
2022-11-05T12:35:46.988Z,97481.34
2022-11-05T12:38:26.139Z,97485.97
2022-11-05T12:40:54.287Z,97486.97
2022-11-05T12:43:45.944Z,97478.28
2022-11-05T12:46:27.356Z,97486.03
2022-11-05T12:49:02.078Z,97477.91
2022-11-05T12:51:34.170Z,97481.56
2022-11-05T12:54:07.279Z,97488.22
2022-11-05T12:56:38.752Z,97485.03
2022-11-05T12:59:21.738Z,97486.47
2022-11-05T13:01:57.051Z,97488.63
2022-11-05T13:04:42.043Z,97482.78
2022-11-05T13:07:12.094Z,97484.91
2022-11-05T13:09:47.896Z,97490.81
2022-11-05T13:12:21.785Z,97483.59
2022-11-05T13:15:14.086Z,97488.03
2022-11-05T13:17:48.969Z,97484.69
2022-11-05T13:20:20.192Z,97475.44
2022-11-05T13:22:52.102Z,97473.50
2022-11-05T13:25:25.290Z,97466.88
2022-11-05T13:28:18.394Z,97460.16
2022-11-05T13:30:48.625Z,97465.84
2022-11-05T13:33:20.790Z,97462.53
2022-11-05T13:36:25.451Z,97469.53
2022-11-05T13:38:59.306Z,97467.56
2022-11-05T13:41:35.085Z,97459.59
2022-11-05T13:44:14.613Z,97452.06
2022-11-05T13:46:43.937Z,97449.72
2022-11-05T13:49:25.767Z,97458.13
2022-11-05T13:52:03.697Z,97449.31
2022-11-05T13:54:39.046Z,97457.41
2022-11-05T13:57:36.389Z,97454.91
2022-11-05T14:00:11.465Z,97443.31
2022-11-05T14:02:43.136Z,97446.22
2022-11-05T14:05:40.409Z,97439.81
2022-11-05T14:08:40.456Z,97437.97
2022-11-05T14:11:21.826Z,97438.38
2022-11-05T14:13:52.513Z,97435.19
2022-11-05T14:16:29.531Z,97439.16
2022-11-05T14:19:18.264Z,97434.47
2022-11-05T14:21:53.225Z,97426.88
2022-11-05T14:24:23.123Z,97437.72
2022-11-05T14:27:02.069Z,97437.59
2022-11-05T14:29:40.720Z,97432.44
2022-11-05T14:32:19.754Z,97429.22
2022-11-05T14:34:55.232Z,97425.84
2022-11-05T14:37:36.943Z,97435.50
2022-11-05T14:40:27.188Z,97437.56
2022-11-05T14:43:07.991Z,97430.34
2022-11-05T14:45:40.972Z,97427.47
2022-11-05T14:48:37.708Z,97420.25
2022-11-05T14:51:26.279Z,97416.41
2022-11-05T14:54:24.021Z,97413.84
2022-11-05T14:56:56.260Z,97417.59
2022-11-05T14:59:31.386Z,97411.13
2022-11-05T15:02:03.118Z,97408.00
2022-11-05T15:04:40.438Z,97429.91
2022-11-05T15:07:07.178Z,97424.88
2022-11-05T15:09:37.146Z,97429.78
2022-11-05T15:12:09.180Z,97442.75
2022-11-05T15:14:57.693Z,97440.59
2022-11-05T15:17:33.422Z,97443.63
2022-11-05T15:20:08.840Z,97446.63
2022-11-05T15:22:44.182Z,97436.81
2022-11-05T15:25:36.152Z,97432.06
2022-11-05T15:28:11.237Z,97431.06
2022-11-05T15:30:37.998Z,97445.75
2022-11-05T15:33:19.835Z,97444.03
2022-11-05T15:35:46.710Z,97435.25
2022-11-05T15:38:28.727Z,97448.22
2022-11-05T15:41:27.035Z,97446.47
2022-11-05T15:43:53.879Z,97450.50
2022-11-05T15:46:28.069Z,97455.13
2022-11-05T15:49:05.541Z,97459.72
2022-11-05T15:51:32.518Z,97449.22
2022-11-05T15:54:28.506Z,97444.88
2022-11-05T15:56:51.908Z,97446.16
2022-11-05T15:59:22.360Z,97450.63
2022-11-05T16:01:53.672Z,97451.47
2022-11-05T16:04:23.753Z,97454.78
2022-11-05T16:06:53.655Z,97439.66
2022-11-05T16:09:28.809Z,97445.53
2022-11-05T16:12:20.850Z,97445.09
2022-11-05T16:14:59.636Z,97444.91
2022-11-05T16:17:29.504Z,97448.31
2022-11-05T16:19:56.800Z,97447.41
2022-11-05T16:22:24.147Z,97461.13
2022-11-05T16:24:50.890Z,97458.03
2022-11-05T16:27:21.873Z,97463.31
2022-11-05T16:29:53.757Z,97458.91
2022-11-05T16:32:30.275Z,97459.47
2022-11-05T16:35:00.453Z,97454.41
2022-11-05T16:37:28.083Z,97457.41
2022-11-05T16:39:55.687Z,97453.22
2022-11-05T16:42:22.405Z,97452.09
2022-11-05T16:44:50.040Z,97453.84
2022-11-05T16:47:17.504Z,97446.41
2022-11-05T16:49:44.464Z,97441.31
2022-11-05T16:52:12.570Z,97448.41
2022-11-05T16:54:39.354Z,97454.81
2022-11-05T16:57:31.714Z,97465.22
2022-11-05T16:59:59.828Z,97461.94
2022-11-05T17:02:27.077Z,97459.97
2022-11-05T17:04:53.921Z,97463.88
2022-11-05T17:07:22.989Z,97465.75
2022-11-05T17:09:49.853Z,97461.44
2022-11-05T17:12:16.613Z,97459.16
2022-11-05T17:14:43.489Z,97468.53
2022-11-05T17:17:10.336Z,97464.78
2022-11-05T17:19:42.230Z,97466.53
2022-11-05T17:22:09.068Z,97457.28
2022-11-05T17:24:36.275Z,97460.34
2022-11-05T17:27:03.941Z,97457.72
2022-11-05T17:29:30.598Z,97465.53
2022-11-05T17:31:57.423Z,97465.66
2022-11-05T17:34:24.134Z,97470.00
2022-11-05T17:36:50.868Z,97474.31
2022-11-05T17:39:17.502Z,97475.91
2022-11-05T17:41:44.505Z,97473.88
2022-11-05T17:44:12.135Z,97482.22
2022-11-05T17:46:39.143Z,97487.88
2022-11-05T17:49:07.793Z,97484.53
2022-11-05T17:51:34.968Z,97473.72
2022-11-05T17:54:01.626Z,97479.38
2022-11-05T17:56:34.367Z,97475.19
2022-11-05T17:59:02.046Z,97479.50
2022-11-05T18:01:31.770Z,97471.13
2022-11-05T18:04:02.464Z,97477.47
2022-11-05T18:06:33.952Z,97481.66
2022-11-05T18:09:00.594Z,97484.38
2022-11-05T18:11:27.634Z,97489.88
2022-11-05T18:13:54.389Z,97489.16
2022-11-05T18:16:21.098Z,97500.81
2022-11-05T18:18:49.227Z,97496.06
2022-11-05T18:21:16.109Z,97489.16
2022-11-05T18:23:42.865Z,97491.16
2022-11-05T18:26:14.528Z,97495.94
2022-11-05T18:28:41.942Z,97500.69
2022-11-05T18:31:18.441Z,97495.81
2022-11-05T18:33:45.410Z,97497.97
2022-11-05T18:36:19.982Z,97496.34
2022-11-05T18:38:47.177Z,97498.38
2022-11-05T18:41:14.046Z,97502.28
2022-11-05T18:43:41.152Z,97496.22
2022-11-05T18:46:08.113Z,97492.63
2022-11-05T18:48:35.388Z,97487.16
2022-11-05T18:51:11.073Z,97491.75
2022-11-05T18:53:38.493Z,97493.63
2022-11-05T18:56:08.054Z,97492.19
2022-11-05T18:58:35.339Z,97495.66
2022-11-05T19:01:06.608Z,97490.59
2022-11-05T19:03:34.025Z,97500.13
2022-11-05T19:06:04.725Z,97499.97
2022-11-05T19:08:32.513Z,97494.34
2022-11-05T19:10:59.518Z,97499.69
2022-11-05T19:13:26.826Z,97496.78
2022-11-05T19:15:53.462Z,97500.09
2022-11-05T19:18:20.210Z,97499.38
2022-11-05T19:20:46.839Z,97504.00
2022-11-05T19:23:13.590Z,97507.31
2022-11-05T19:25:40.310Z,97501.69
2022-11-05T19:28:07.055Z,97502.13
2022-11-05T19:30:33.745Z,97501.97
2022-11-05T19:33:00.650Z,97501.81
2022-11-05T19:35:27.290Z,97500.38
2022-11-05T19:37:54.015Z,97500.25
2022-11-05T19:40:20.734Z,97493.88
2022-11-05T19:42:47.754Z,97488.25
2022-11-05T19:45:43.004Z,97484.09
2022-11-05T19:48:01.113Z,97477.16
2022-11-05T19:50:27.761Z,97475.00
2022-11-05T19:52:54.613Z,97475.41
2022-11-05T19:55:21.624Z,97473.84
2022-11-05T19:57:48.370Z,97469.66
2022-11-05T20:00:15.467Z,97472.25
2022-11-05T20:02:46.333Z,97475.56
2022-11-05T20:05:14.291Z,97469.38
2022-11-05T20:07:41.315Z,97475.41
2022-11-05T20:10:08.744Z,97473.09
2022-11-05T20:12:35.962Z,97480.59
2022-11-05T20:15:04.089Z,97500.16
2022-11-05T20:17:31.025Z,97498.72
2022-11-05T20:19:58.041Z,97492.34
2022-11-05T20:22:24.776Z,97499.72
2022-11-05T20:24:51.698Z,97503.03
2022-11-05T20:27:18.776Z,97504.88
2022-11-05T20:29:45.628Z,97506.75
2022-11-05T20:32:12.718Z,97516.25
2022-11-05T20:34:39.501Z,97509.91
2022-11-05T20:37:06.171Z,97517.38
2022-11-05T20:39:32.947Z,97517.25
2022-11-05T20:42:00.613Z,97515.06
2022-11-05T20:44:27.502Z,97513.63
2022-11-05T20:46:54.549Z,97516.22
2022-11-05T20:49:25.171Z,97510.03
2022-11-05T20:51:52.540Z,97500.94
2022-11-05T20:54:19.223Z,97503.53
2022-11-05T20:56:45.999Z,97505.38
2022-11-05T20:59:12.669Z,97498.47
2022-11-05T21:01:39.514Z,97507.25
2022-11-05T21:04:07.594Z,97509.63
2022-11-05T21:06:35.827Z,97506.75
2022-11-05T21:09:04.155Z,97512.06
2022-11-05T21:11:53.627Z,97506.59
2022-11-05T21:14:20.703Z,97492.19
2022-11-05T21:16:47.481Z,97496.81
2022-11-05T21:19:15.274Z,97489.91
2022-11-05T21:21:42.014Z,97500.66
2022-11-05T21:24:09.263Z,97510.16
2022-11-05T21:26:36.019Z,97500.34
2022-11-05T21:29:02.859Z,97498.06
2022-11-05T21:31:29.580Z,97507.53
2022-11-05T21:33:56.332Z,97509.53
2022-11-05T21:36:23.044Z,97512.28
2022-11-05T21:38:49.778Z,97507.53
2022-11-05T21:41:16.421Z,97513.75
2022-11-05T21:43:43.183Z,97506.09
2022-11-05T21:46:12.284Z,97507.38
2022-11-05T21:48:39.170Z,97505.38
2022-11-05T21:51:24.823Z,97501.91
2022-11-05T21:54:10.118Z,97502.47
2022-11-05T21:56:56.393Z,97501.03
2022-11-05T21:59:42.673Z,97492.66
2022-11-05T22:02:11.572Z,97496.69
2022-11-05T22:04:41.057Z,97493.97
2022-11-05T22:07:09.271Z,97489.78
2022-11-05T22:09:36.262Z,97483.75
2022-11-05T22:12:03.406Z,97475.56
2022-11-05T22:14:30.202Z,97469.38
2022-11-05T22:16:57.581Z,97461.16
2022-11-05T22:19:25.040Z,97460.44
2022-11-05T22:21:52.193Z,97467.94
2022-11-05T22:24:19.549Z,97469.38
2022-11-05T22:26:46.707Z,97480.88
2022-11-05T22:29:13.473Z,97475.97
2022-11-05T22:31:40.486Z,97478.53
2022-11-05T22:34:07.445Z,97476.38
2022-11-05T22:36:35.013Z,97482.44
2022-11-05T22:39:02.282Z,97489.34
2022-11-05T22:41:29.080Z,97481.84
2022-11-05T22:43:55.914Z,97469.47
2022-11-05T22:46:24.486Z,97479.84
2022-11-05T22:48:53.325Z,97473.66
2022-11-05T22:51:22.801Z,97475.66
2022-11-05T22:53:49.578Z,97480.56
2022-11-05T22:56:18.992Z,97470.19
2022-11-05T22:58:45.998Z,97475.66
2022-11-05T23:01:13.983Z,97475.50
2022-11-05T23:03:42.138Z,97479.69
2022-11-05T23:06:32.543Z,97470.03
2022-11-05T23:09:18.377Z,97465.28
2022-11-05T23:11:48.253Z,97465.84
2022-11-05T23:14:15.250Z,97452.19
2022-11-05T23:17:01.536Z,97453.47
2022-11-05T23:19:47.342Z,97448.03
2022-11-05T23:22:37.678Z,97439.69
2022-11-05T23:25:05.883Z,97438.22
2022-11-05T23:27:34.035Z,97440.22
2022-11-05T23:30:02.584Z,97434.63
2022-11-05T23:32:31.265Z,97429.72
2022-11-05T23:34:58.972Z,97436.63
2022-11-05T23:37:47.508Z,97431.88
2022-11-05T23:40:21.852Z,97437.19
2022-11-05T23:43:07.638Z,97428.25
2022-11-05T23:45:53.476Z,97444.50
2022-11-05T23:48:33.547Z,97449.13
2022-11-05T23:51:03.345Z,97452.56
2022-11-05T23:53:32.072Z,97448.38
2022-11-05T23:56:10.749Z,97448.38
2022-11-05T23:58:38.400Z,97436.56
